createdAt,value
2022-08-17T04:01:10.496Z,99928.72
2022-08-17T04:04:13.832Z,99928.72
2022-08-17T04:07:16.329Z,99935.72
2022-08-17T04:10:18.680Z,99939.22
2022-08-17T04:13:25.461Z,99936.56
2022-08-17T04:16:28.982Z,99941.56
2022-08-17T04:19:31.153Z,99950.19
2022-08-17T04:22:34.361Z,99953.88
2022-08-17T04:25:39.671Z,99946.03
2022-08-17T04:28:43.418Z,99952.50
2022-08-17T04:31:45.542Z,99954.00
2022-08-17T04:34:47.846Z,99943.50
2022-08-17T04:37:50.929Z,99956.00
2022-08-17T04:41:12.678Z,99958.66
2022-08-17T04:44:14.803Z,99957.13
2022-08-17T04:47:37.627Z,99958.16
2022-08-17T04:50:43.697Z,99960.09
2022-08-17T04:53:54.461Z,99963.28
2022-08-17T04:56:57.138Z,99966.00
2022-08-17T04:59:59.467Z,99965.31
2022-08-17T05:03:01.893Z,99973.00
2022-08-17T05:06:04.514Z,99977.84
2022-08-17T05:09:06.717Z,99970.03
2022-08-17T05:12:09.856Z,99983.81
2022-08-17T05:15:16.010Z,99977.81
2022-08-17T05:18:18.721Z,99981.03
2022-08-17T05:21:23.117Z,99979.59
2022-08-17T05:24:42.756Z,99987.56
2022-08-17T05:27:45.937Z,99986.84
2022-08-17T05:30:49.542Z,99983.81
2022-08-17T05:33:52.433Z,99981.25
2022-08-17T05:36:54.756Z,99976.72
2022-08-17T05:39:56.898Z,99972.59
2022-08-17T05:43:16.122Z,99972.34
2022-08-17T05:46:30.591Z,99968.16
2022-08-17T05:49:33.346Z,99983.09
2022-08-17T05:53:00.618Z,99977.63
2022-08-17T05:56:29.475Z,99986.75
2022-08-17T05:59:58.279Z,99993.81
2022-08-17T06:03:11.241Z,99985.66
2022-08-17T06:06:32.009Z,99981.09
2022-08-17T06:09:37.014Z,99985.44
2022-08-17T06:13:00.210Z,99978.03
2022-08-17T06:16:32.880Z,99980.44
2022-08-17T06:19:44.043Z,99987.91
2022-08-17T06:22:50.772Z,99993.03
2022-08-17T06:25:58.645Z,99996.22
2022-08-17T06:29:24.514Z,99998.59
2022-08-17T06:32:26.865Z,100002.97
2022-08-17T06:35:37.809Z,100002.97
2022-08-17T06:38:49.960Z,100001.00
2022-08-17T06:43:02.570Z,100001.00
2022-08-17T06:45:49.273Z,99995.94
2022-08-17T06:48:57.515Z,100006.91
2022-08-17T06:52:42.303Z,100003.37
2022-08-17T06:56:01.271Z,100001.00
2022-08-17T06:59:07.459Z,99999.06
2022-08-17T07:02:17.957Z,100004.13
2022-08-17T07:05:26.826Z,100003.34
2022-08-17T07:08:55.067Z,99993.91
2022-08-17T07:12:22.078Z,100002.91
2022-08-17T07:15:32.742Z,100000.16
2022-08-17T07:18:35.134Z,100002.09
2022-08-17T07:21:49.631Z,100002.47
2022-08-17T07:25:00.755Z,100000.09
2022-08-17T07:28:07.327Z,99996.91
2022-08-17T07:31:13.272Z,99994.91
2022-08-17T07:34:15.450Z,99993.72
2022-08-17T07:37:19.395Z,99993.28
2022-08-17T07:40:27.094Z,99995.19
2022-08-17T07:43:37.899Z,99994.75
2022-08-17T07:47:10.874Z,99995.97
2022-08-17T07:50:28.834Z,99995.97
2022-08-17T07:53:31.894Z,99992.38
2022-08-17T07:56:54.335Z,99994.31
2022-08-17T08:00:03.108Z,99992.34
2022-08-17T08:03:18.416Z,100009.56
2022-08-17T08:06:24.808Z,100005.63
2022-08-17T08:09:39.120Z,100000.84
2022-08-17T08:12:42.971Z,100003.59
2022-08-17T08:15:53.704Z,100004.00
2022-08-17T08:19:00.582Z,100001.97
2022-08-17T08:22:11.161Z,99996.38
2022-08-17T08:25:16.635Z,99996.34
2022-08-17T08:28:27.348Z,99995.50
2022-08-17T08:32:07.593Z,99997.75
2022-08-17T08:35:32.982Z,100000.13
2022-08-17T08:38:56.581Z,100000.41
2022-08-17T08:42:18.182Z,99990.97
2022-08-17T08:45:32.786Z,99995.28
2022-08-17T08:49:06.532Z,99992.34
2022-08-17T08:52:33.998Z,99985.66
2022-08-17T08:56:11.546Z,99983.72
2022-08-17T08:59:32.882Z,99977.25
2022-08-17T09:02:51.487Z,99968.19
2022-08-17T09:06:37.439Z,99972.28
2022-08-17T09:09:48.285Z,99979.00
2022-08-17T09:13:22.059Z,99978.87
2022-08-17T09:16:33.157Z,99983.97
2022-08-17T09:19:42.561Z,99980.31
2022-08-17T09:22:52.658Z,99987.19
2022-08-17T09:26:00.622Z,99989.50
2022-08-17T09:29:09.927Z,99987.91
2022-08-17T09:32:19.406Z,99986.37
2022-08-17T09:35:25.133Z,99981.06
2022-08-17T09:39:06.079Z,99970.34
2022-08-17T09:42:26.119Z,99977.91
2022-08-17T09:45:37.661Z,99973.88
2022-08-17T09:49:03.288Z,99971.06
2022-08-17T09:52:20.339Z,99964.66
2022-08-17T09:55:32.427Z,99970.13
2022-08-17T09:59:08.545Z,99959.47
2022-08-17T10:02:32.631Z,99957.78
2022-08-17T10:05:41.302Z,99966.25
2022-08-17T10:09:04.491Z,99963.91
2022-08-17T10:12:46.997Z,99966.78
2022-08-17T10:15:54.673Z,99969.97
2022-08-17T10:19:06.313Z,99967.38
2022-08-17T10:22:44.470Z,99968.19
2022-08-17T10:26:13.123Z,99973.06
2022-08-17T10:29:28.962Z,99962.37
2022-08-17T10:32:46.834Z,99954.34
2022-08-17T10:36:01.187Z,99948.69
2022-08-17T10:39:27.728Z,99946.88
2022-08-17T10:42:43.658Z,99947.59
2022-08-17T10:45:45.895Z,99958.09
2022-08-17T10:49:14.950Z,99953.63
2022-08-17T10:52:20.270Z,99964.78
2022-08-17T10:55:27.729Z,99959.44
2022-08-17T10:58:38.581Z,99950.28
2022-08-17T11:01:43.325Z,99943.88
2022-08-17T11:04:51.451Z,99942.81
2022-08-17T11:08:18.138Z,99941.41
2022-08-17T11:11:43.359Z,99941.06
2022-08-17T11:14:54.189Z,99948.13
2022-08-17T11:18:15.461Z,99934.13
2022-08-17T11:21:47.515Z,99930.81
2022-08-17T11:24:52.914Z,99936.69
2022-08-17T11:28:05.149Z,99941.78
2022-08-17T11:31:38.645Z,99925.03
2022-08-17T11:34:44.487Z,99912.44
2022-08-17T11:37:55.266Z,99921.47
2022-08-17T11:41:17.591Z,99909.44
2022-08-17T11:44:45.312Z,99911.94
2022-08-17T11:48:28.768Z,99922.56
2022-08-17T11:52:00.312Z,99924.37
2022-08-17T11:55:33.528Z,99917.13
2022-08-17T11:58:29.332Z,99916.09
2022-08-17T12:01:31.457Z,99917.63
2022-08-17T12:04:35.614Z,99912.72
2022-08-17T12:08:06.794Z,99905.34
2022-08-17T12:11:56.359Z,99899.25
2022-08-17T12:15:12.658Z,99896.97
2022-08-17T12:18:32.328Z,99891.16
2022-08-17T12:21:45.112Z,99890.22
2022-08-17T12:25:02.773Z,99885.03
2022-08-17T12:28:19.944Z,99884.88
2022-08-17T12:31:29.490Z,99891.34
2022-08-17T12:34:39.779Z,99887.37
2022-08-17T12:37:47.707Z,99888.06
2022-08-17T12:40:58.115Z,99877.63
2022-08-17T12:44:02.668Z,99871.31
2022-08-17T12:47:19.442Z,99877.00
2022-08-17T12:50:28.881Z,99869.59
2022-08-17T12:53:35.724Z,99865.44
2022-08-17T12:56:38.279Z,99874.81
2022-08-17T12:59:50.353Z,99868.66
2022-08-17T13:03:02.441Z,99865.38
2022-08-17T13:06:07.946Z,99863.94
2022-08-17T13:09:40.354Z,99872.94
2022-08-17T13:12:43.002Z,99865.75
2022-08-17T13:15:54.841Z,99865.88
2022-08-17T13:19:09.571Z,99865.59
2022-08-17T13:22:12.801Z,99859.47
2022-08-17T13:25:16.671Z,99865.00
2022-08-17T13:28:35.793Z,99862.06
2022-08-17T13:31:52.167Z,99865.59
2022-08-17T13:35:15.463Z,99861.94
2022-08-17T13:38:45.479Z,99857.06
2022-08-17T13:41:49.743Z,99850.22
2022-08-17T13:44:51.797Z,99857.41
2022-08-17T13:48:13.537Z,99849.53
2022-08-17T13:51:25.897Z,99857.28
2022-08-17T13:54:33.187Z,99850.44
2022-08-17T13:57:36.275Z,99840.87
2022-08-17T14:00:39.419Z,99855.50
2022-08-17T14:03:41.747Z,99837.34
2022-08-17T14:07:23.158Z,99844.00
2022-08-17T14:10:26.066Z,99843.81
2022-08-17T14:13:28.595Z,99845.69
2022-08-17T14:16:30.930Z,99838.88
2022-08-17T14:19:33.059Z,99851.84
2022-08-17T14:22:38.184Z,99836.44
2022-08-17T14:25:40.510Z,99849.16
2022-08-17T14:28:54.694Z,99833.91
2022-08-17T14:32:04.237Z,99826.72
2022-08-17T14:35:09.024Z,99823.47
2022-08-17T14:38:11.082Z,99840.81
2022-08-17T14:41:21.470Z,99833.84
2022-08-17T14:44:24.513Z,99838.59
2022-08-17T14:47:26.931Z,99840.37
2022-08-17T14:50:29.004Z,99830.72
